sensor_id;sensor_type;location;lat;lon;timestamp;P1;durP1;ratioP1;P2;durP2;ratioP2
11582;SDS011;34299;50.820;4.548;2023-07-16T00:00:44;5.07;;;1.90;;
11582;SDS011;34299;50.820;4.548;2023-07-16T00:03:13;5.53;;;1.90;;
11582;SDS011;34299;50.820;4.548;2023-07-16T00:05:40;4.50;;;1.60;;
11582;SDS011;34299;50.820;4.548;2023-07-16T00:08:07;4.90;;;1.77;;
11582;SDS011;34299;50.820;4.548;2023-07-16T00:10:34;5.13;;;1.70;;
11582;SDS011;34299;50.820;4.548;2023-07-16T00:13:02;7.70;;;2.03;;
11582;SDS011;34299;50.820;4.548;2023-07-16T00:15:29;4.47;;;2.03;;
11582;SDS011;34299;50.820;4.548;2023-07-16T00:17:57;7.50;;;2.17;;
11582;SDS011;34299;50.820;4.548;2023-07-16T00:20:25;4.83;;;2.07;;
11582;SDS011;34299;50.820;4.548;2023-07-16T00:22:53;3.23;;;1.83;;
11582;SDS011;34299;50.820;4.548;2023-07-16T00:25:22;2.60;;;1.90;;
11582;SDS011;34299;50.820;4.548;2023-07-16T00:27:49;4.50;;;2.07;;
11582;SDS011;34299;50.820;4.548;2023-07-16T00:30:16;6.90;;;2.50;;
11582;SDS011;34299;50.820;4.548;2023-07-16T00:32:44;4.33;;;1.90;;
11582;SDS011;34299;50.820;4.548;2023-07-16T00:35:11;6.60;;;1.90;;
11582;SDS011;34299;50.820;4.548;2023-07-16T00:37:39;6.23;;;2.30;;
11582;SDS011;34299;50.820;4.548;2023-07-16T00:40:07;3.30;;;1.93;;
11582;SDS011;34299;50.820;4.548;2023-07-16T00:42:34;4.10;;;1.90;;
11582;SDS011;34299;50.820;4.548;2023-07-16T00:45:02;5.90;;;1.87;;
11582;SDS011;34299;50.820;4.548;2023-07-16T00:47:29;5.80;;;2.03;;
11582;SDS011;34299;50.820;4.548;2023-07-16T00:49:57;3.87;;;1.43;;
11582;SDS011;34299;50.820;4.548;2023-07-16T00:52:24;6.20;;;1.87;;
11582;SDS011;34299;50.820;4.548;2023-07-16T00:54:55;9.10;;;1.97;;
11582;SDS011;34299;50.820;4.548;2023-07-16T00:57:22;7.27;;;1.73;;
11582;SDS011;34299;50.820;4.548;2023-07-16T00:59:50;4.87;;;2.13;;
11582;SDS011;34299;50.820;4.548;2023-07-16T01:02:17;4.70;;;2.20;;
11582;SDS011;34299;50.820;4.548;2023-07-16T01:04:44;4.47;;;2.53;;
11582;SDS011;34299;50.820;4.548;2023-07-16T01:07:11;9.63;;;2.23;;
11582;SDS011;34299;50.820;4.548;2023-07-16T01:09:42;6.90;;;2.47;;
11582;SDS011;34299;50.820;4.548;2023-07-16T01:12:10;3.17;;;1.90;;
11582;SDS011;34299;50.820;4.548;2023-07-16T01:14:38;6.10;;;2.30;;
11582;SDS011;34299;50.820;4.548;2023-07-16T01:17:06;6.17;;;2.17;;
11582;SDS011;34299;50.820;4.548;2023-07-16T01:19:34;5.80;;;2.70;;
11582;SDS011;34299;50.820;4.548;2023-07-16T01:22:04;6.33;;;2.60;;
11582;SDS011;34299;50.820;4.548;2023-07-16T01:24:46;1.87;;;1.40;;
11582;SDS011;34299;50.820;4.548;2023-07-16T01:27:26;9.13;;;2.40;;
11582;SDS011;34299;50.820;4.548;2023-07-16T01:29:57;5.67;;;1.80;;
11582;SDS011;34299;50.820;4.548;2023-07-16T01:32:25;6.23;;;2.27;;
11582;SDS011;34299;50.820;4.548;2023-07-16T01:34:53;3.03;;;2.00;;
11582;SDS011;34299;50.820;4.548;2023-07-16T01:37:20;3.47;;;1.90;;
11582;SDS011;34299;50.820;4.548;2023-07-16T01:39:48;3.73;;;1.83;;
11582;SDS011;34299;50.820;4.548;2023-07-16T01:42:15;7.23;;;2.40;;
11582;SDS011;34299;50.820;4.548;2023-07-16T01:44:42;6.00;;;2.00;;
11582;SDS011;34299;50.820;4.548;2023-07-16T01:47:11;7.13;;;1.90;;
11582;SDS011;34299;50.820;4.548;2023-07-16T01:49:38;4.17;;;2.47;;
11582;SDS011;34299;50.820;4.548;2023-07-16T01:52:07;6.43;;;2.73;;
11582;SDS011;34299;50.820;4.548;2023-07-16T01:54:35;6.73;;;3.03;;
11582;SDS011;34299;50.820;4.548;2023-07-16T01:57:02;2.60;;;1.93;;
11582;SDS011;34299;50.820;4.548;2023-07-16T01:59:29;4.17;;;2.23;;
11582;SDS011;34299;50.820;4.548;2023-07-16T02:01:57;3.63;;;2.23;;
11582;SDS011;34299;50.820;4.548;2023-07-16T02:04:25;6.60;;;2.33;;
11582;SDS011;34299;50.820;4.548;2023-07-16T02:06:52;5.77;;;2.43;;
11582;SDS011;34299;50.820;4.548;2023-07-16T02:09:19;3.63;;;2.20;;
11582;SDS011;34299;50.820;4.548;2023-07-16T02:11:47;7.70;;;1.80;;
11582;SDS011;34299;50.820;4.548;2023-07-16T02:14:14;4.13;;;2.50;;
11582;SDS011;34299;50.820;4.548;2023-07-16T02:16:41;6.43;;;2.90;;
11582;SDS011;34299;50.820;4.548;2023-07-16T02:19:08;6.13;;;2.60;;
11582;SDS011;34299;50.820;4.548;2023-07-16T02:21:37;3.03;;;1.37;;
11582;SDS011;34299;50.820;4.548;2023-07-16T02:24:05;5.53;;;2.17;;
11582;SDS011;34299;50.820;4.548;2023-07-16T02:26:32;6.43;;;2.20;;
11582;SDS011;34299;50.820;4.548;2023-07-16T02:28:59;5.67;;;1.97;;
11582;SDS011;34299;50.820;4.548;2023-07-16T02:31:26;5.77;;;1.73;;
11582;SDS011;34299;50.820;4.548;2023-07-16T02:33:53;2.53;;;1.80;;
11582;SDS011;34299;50.820;4.548;2023-07-16T02:36:21;3.40;;;1.90;;
11582;SDS011;34299;50.820;4.548;2023-07-16T02:38:49;13.90;;;2.90;;
11582;SDS011;34299;50.820;4.548;2023-07-16T02:41:16;3.20;;;2.53;;
11582;SDS011;34299;50.820;4.548;2023-07-16T02:43:45;6.07;;;2.07;;
11582;SDS011;34299;50.820;4.548;2023-07-16T02:46:12;6.37;;;2.77;;
11582;SDS011;34299;50.820;4.548;2023-07-16T02:48:39;4.47;;;2.20;;
11582;SDS011;34299;50.820;4.548;2023-07-16T02:51:06;3.73;;;1.93;;
11582;SDS011;34299;50.820;4.548;2023-07-16T02:53:33;7.40;;;2.80;;
11582;SDS011;34299;50.820;4.548;2023-07-16T02:56:02;6.30;;;2.93;;
11582;SDS011;34299;50.820;4.548;2023-07-16T02:58:29;7.10;;;2.27;;
11582;SDS011;34299;50.820;4.548;2023-07-16T03:00:58;6.87;;;2.90;;
11582;SDS011;34299;50.820;4.548;2023-07-16T03:03:26;4.20;;;2.40;;
11582;SDS011;34299;50.820;4.548;2023-07-16T03:05:54;4.13;;;2.20;;
11582;SDS011;34299;50.820;4.548;2023-07-16T03:08:23;6.67;;;2.57;;
11582;SDS011;34299;50.820;4.548;2023-07-16T03:10:55;5.50;;;2.17;;
11582;SDS011;34299;50.820;4.548;2023-07-16T03:13:24;6.03;;;2.67;;
11582;SDS011;34299;50.820;4.548;2023-07-16T03:15:51;6.00;;;3.00;;
11582;SDS011;34299;50.820;4.548;2023-07-16T03:18:18;1.93;;;1.73;;
11582;SDS011;34299;50.820;4.548;2023-07-16T03:20:45;4.23;;;2.13;;
11582;SDS011;34299;50.820;4.548;2023-07-16T03:23:13;5.73;;;3.07;;
11582;SDS011;34299;50.820;4.548;2023-07-16T03:25:40;6.30;;;2.47;;
11582;SDS011;34299;50.820;4.548;2023-07-16T03:28:09;4.77;;;2.40;;
11582;SDS011;34299;50.820;4.548;2023-07-16T03:30:37;5.97;;;2.70;;
11582;SDS011;34299;50.820;4.548;2023-07-16T03:33:06;8.87;;;3.03;;
11582;SDS011;34299;50.820;4.548;2023-07-16T03:35:33;5.57;;;2.50;;
11582;SDS011;34299;50.820;4.548;2023-07-16T03:38:00;5.63;;;2.63;;
11582;SDS011;34299;50.820;4.548;2023-07-16T03:40:27;6.00;;;2.93;;
11582;SDS011;34299;50.820;4.548;2023-07-16T03:42:54;5.17;;;2.93;;
11582;SDS011;34299;50.820;4.548;2023-07-16T03:45:22;7.27;;;2.43;;
11582;SDS011;34299;50.820;4.548;2023-07-16T03:47:50;9.80;;;3.10;;
11582;SDS011;34299;50.820;4.548;2023-07-16T03:50:17;5.23;;;2.27;;
11582;SDS011;34299;50.820;4.548;2023-07-16T03:52:45;5.50;;;2.50;;
11582;SDS011;34299;50.820;4.548;2023-07-16T03:55:12;7.20;;;2.47;;
11582;SDS011;34299;50.820;4.548;2023-07-16T03:57:39;5.17;;;2.80;;
11582;SDS011;34299;50.820;4.548;2023-07-16T04:00:07;7.03;;;2.87;;
11582;SDS011;34299;50.820;4.548;2023-07-16T04:02:35;1.80;;;1.67;;
11582;SDS011;34299;50.820;4.548;2023-07-16T04:05:04;5.03;;;2.33;;
11582;SDS011;34299;50.820;4.548;2023-07-16T04:07:31;7.37;;;2.63;;
11582;SDS011;34299;50.820;4.548;2023-07-16T04:09:59;3.13;;;1.83;;
11582;SDS011;34299;50.820;4.548;2023-07-16T04:12:26;4.50;;;2.37;;
11582;SDS011;34299;50.820;4.548;2023-07-16T04:14:55;5.73;;;3.07;;
11582;SDS011;34299;50.820;4.548;2023-07-16T04:17:23;6.37;;;2.67;;
11582;SDS011;34299;50.820;4.548;2023-07-16T04:19:50;3.50;;;2.67;;
11582;SDS011;34299;50.820;4.548;2023-07-16T04:22:18;5.73;;;2.90;;
11582;SDS011;34299;50.820;4.548;2023-07-16T04:24:45;5.63;;;2.60;;
11582;SDS011;34299;50.820;4.548;2023-07-16T04:27:12;6.80;;;2.83;;
11582;SDS011;34299;50.820;4.548;2023-07-16T04:29:39;6.03;;;2.53;;
11582;SDS011;34299;50.820;4.548;2023-07-16T04:32:06;5.33;;;2.73;;
11582;SDS011;34299;50.820;4.548;2023-07-16T04:34:33;5.73;;;2.90;;
11582;SDS011;34299;50.820;4.548;2023-07-16T04:37:00;4.87;;;3.33;;
11582;SDS011;34299;50.820;4.548;2023-07-16T04:39:28;5.37;;;2.80;;
11582;SDS011;34299;50.820;4.548;2023-07-16T04:41:55;3.40;;;2.53;;
11582;SDS011;34299;50.820;4.548;2023-07-16T04:44:22;3.37;;;2.20;;
11582;SDS011;34299;50.820;4.548;2023-07-16T04:46:49;7.43;;;3.93;;
11582;SDS011;34299;50.820;4.548;2023-07-16T04:49:16;6.80;;;3.63;;
11582;SDS011;34299;50.820;4.548;2023-07-16T04:51:43;4.43;;;2.97;;
11582;SDS011;34299;50.820;4.548;2023-07-16T04:54:10;6.20;;;3.37;;
11582;SDS011;34299;50.820;4.548;2023-07-16T04:56:38;5.17;;;3.23;;
11582;SDS011;34299;50.820;4.548;2023-07-16T04:59:05;9.30;;;3.97;;
11582;SDS011;34299;50.820;4.548;2023-07-16T05:01:32;3.33;;;2.17;;
11582;SDS011;34299;50.820;4.548;2023-07-16T05:03:59;4.30;;;2.80;;
11582;SDS011;34299;50.820;4.548;2023-07-16T05:06:26;5.47;;;2.40;;
11582;SDS011;34299;50.820;4.548;2023-07-16T05:08:52;4.90;;;2.60;;
11582;SDS011;34299;50.820;4.548;2023-07-16T05:11:19;5.87;;;2.83;;
11582;SDS011;34299;50.820;4.548;2023-07-16T05:13:48;4.13;;;2.60;;
11582;SDS011;34299;50.820;4.548;2023-07-16T05:16:15;4.87;;;2.83;;
11582;SDS011;34299;50.820;4.548;2023-07-16T05:18:42;11.83;;;3.83;;
11582;SDS011;34299;50.820;4.548;2023-07-16T05:21:09;8.93;;;3.97;;
11582;SDS011;34299;50.820;4.548;2023-07-16T05:23:35;6.60;;;3.90;;
11582;SDS011;34299;50.820;4.548;2023-07-16T05:26:02;7.30;;;3.67;;
11582;SDS011;34299;50.820;4.548;2023-07-16T05:28:29;5.73;;;3.90;;
11582;SDS011;34299;50.820;4.548;2023-07-16T05:31:01;4.27;;;2.60;;
11582;SDS011;34299;50.820;4.548;2023-07-16T05:33:29;8.50;;;4.03;;
11582;SDS011;34299;50.820;4.548;2023-07-16T05:35:56;4.90;;;2.93;;
11582;SDS011;34299;50.820;4.548;2023-07-16T05:38:23;6.07;;;2.60;;
11582;SDS011;34299;50.820;4.548;2023-07-16T05:40:50;12.47;;;4.13;;
11582;SDS011;34299;50.820;4.548;2023-07-16T05:43:16;5.73;;;3.57;;
11582;SDS011;34299;50.820;4.548;2023-07-16T05:45:43;6.63;;;2.47;;
11582;SDS011;34299;50.820;4.548;2023-07-16T05:48:12;7.07;;;4.87;;
11582;SDS011;34299;50.820;4.548;2023-07-16T05:50:38;7.73;;;3.47;;
11582;SDS011;34299;50.820;4.548;2023-07-16T05:53:05;7.10;;;4.00;;
11582;SDS011;34299;50.820;4.548;2023-07-16T05:55:33;9.47;;;4.60;;
11582;SDS011;34299;50.820;4.548;2023-07-16T05:58:00;9.17;;;4.30;;
11582;SDS011;34299;50.820;4.548;2023-07-16T06:00:27;11.17;;;4.37;;
11582;SDS011;34299;50.820;4.548;2023-07-16T06:02:54;4.63;;;2.60;;
11582;SDS011;34299;50.820;4.548;2023-07-16T06:05:23;8.17;;;4.43;;
11582;SDS011;34299;50.820;4.548;2023-07-16T06:07:51;10.50;;;4.33;;
11582;SDS011;34299;50.820;4.548;2023-07-16T06:10:18;6.23;;;3.93;;
11582;SDS011;34299;50.820;4.548;2023-07-16T06:12:45;8.07;;;3.20;;
11582;SDS011;34299;50.820;4.548;2023-07-16T06:15:12;6.13;;;3.67;;
11582;SDS011;34299;50.820;4.548;2023-07-16T06:17:39;7.67;;;3.63;;
11582;SDS011;34299;50.820;4.548;2023-07-16T06:20:07;5.53;;;3.60;;
11582;SDS011;34299;50.820;4.548;2023-07-16T06:22:36;6.43;;;3.90;;
11582;SDS011;34299;50.820;4.548;2023-07-16T06:25:03;5.70;;;4.00;;
11582;SDS011;34299;50.820;4.548;2023-07-16T06:27:31;12.53;;;3.90;;
11582;SDS011;34299;50.820;4.548;2023-07-16T06:29:58;8.87;;;3.63;;
11582;SDS011;34299;50.820;4.548;2023-07-16T06:32:24;5.17;;;3.20;;
11582;SDS011;34299;50.820;4.548;2023-07-16T06:34:52;8.20;;;3.77;;
11582;SDS011;34299;50.820;4.548;2023-07-16T06:37:19;12.80;;;4.27;;
11582;SDS011;34299;50.820;4.548;2023-07-16T06:39:49;12.77;;;4.60;;
11582;SDS011;34299;50.820;4.548;2023-07-16T06:42:17;9.67;;;4.87;;
11582;SDS011;34299;50.820;4.548;2023-07-16T06:44:44;3.63;;;2.73;;
11582;SDS011;34299;50.820;4.548;2023-07-16T06:47:11;9.77;;;4.60;;
11582;SDS011;34299;50.820;4.548;2023-07-16T06:49:38;5.97;;;3.37;;
11582;SDS011;34299;50.820;4.548;2023-07-16T06:52:06;8.93;;;4.43;;
11582;SDS011;34299;50.820;4.548;2023-07-16T06:54:33;8.07;;;3.67;;
11582;SDS011;34299;50.820;4.548;2023-07-16T06:57:02;6.33;;;4.20;;
11582;SDS011;34299;50.820;4.548;2023-07-16T06:59:29;7.33;;;3.90;;
11582;SDS011;34299;50.820;4.548;2023-07-16T07:01:56;9.13;;;3.53;;
11582;SDS011;34299;50.820;4.548;2023-07-16T07:04:24;8.10;;;3.83;;
11582;SDS011;34299;50.820;4.548;2023-07-16T07:06:51;8.83;;;3.63;;
11582;SDS011;34299;50.820;4.548;2023-07-16T07:09:18;7.47;;;4.30;;
11582;SDS011;34299;50.820;4.548;2023-07-16T07:11:45;8.07;;;3.50;;
11582;SDS011;34299;50.820;4.548;2023-07-16T07:14:14;8.37;;;4.30;;
11582;SDS011;34299;50.820;4.548;2023-07-16T07:16:41;10.20;;;4.07;;
11582;SDS011;34299;50.820;4.548;2023-07-16T07:19:09;8.20;;;4.43;;
11582;SDS011;34299;50.820;4.548;2023-07-16T07:21:36;9.90;;;4.50;;
11582;SDS011;34299;50.820;4.548;2023-07-16T07:24:03;8.47;;;3.67;;
11582;SDS011;34299;50.820;4.548;2023-07-16T07:26:30;8.83;;;4.23;;
11582;SDS011;34299;50.820;4.548;2023-07-16T07:28:57;11.17;;;4.10;;
11582;SDS011;34299;50.820;4.548;2023-07-16T07:31:26;8.03;;;3.20;;
11582;SDS011;34299;50.820;4.548;2023-07-16T07:33:53;12.73;;;5.93;;
11582;SDS011;34299;50.820;4.548;2023-07-16T07:36:22;5.60;;;3.57;;
11582;SDS011;34299;50.820;4.548;2023-07-16T07:38:49;9.03;;;3.87;;
11582;SDS011;34299;50.820;4.548;2023-07-16T07:41:16;11.53;;;5.90;;
11582;SDS011;34299;50.820;4.548;2023-07-16T07:43:43;6.17;;;3.97;;
11582;SDS011;34299;50.820;4.548;2023-07-16T07:46:11;10.80;;;4.67;;
11582;SDS011;34299;50.820;4.548;2023-07-16T07:48:39;5.77;;;3.27;;
11582;SDS011;34299;50.820;4.548;2023-07-16T07:51:06;6.30;;;4.53;;
11582;SDS011;34299;50.820;4.548;2023-07-16T07:53:34;6.63;;;4.60;;
11582;SDS011;34299;50.820;4.548;2023-07-16T07:56:01;8.07;;;3.90;;
11582;SDS011;34299;50.820;4.548;2023-07-16T07:58:28;8.57;;;3.57;;
11582;SDS011;34299;50.820;4.548;2023-07-16T08:00:55;9.77;;;4.30;;
11582;SDS011;34299;50.820;4.548;2023-07-16T08:03:22;8.40;;;4.13;;
11582;SDS011;34299;50.820;4.548;2023-07-16T08:05:51;12.70;;;4.10;;
11582;SDS011;34299;50.820;4.548;2023-07-16T08:08:18;9.77;;;3.83;;
11582;SDS011;34299;50.820;4.548;2023-07-16T08:10:45;7.27;;;3.87;;
11582;SDS011;34299;50.820;4.548;2023-07-16T08:13:13;6.27;;;3.87;;
11582;SDS011;34299;50.820;4.548;2023-07-16T08:15:40;6.43;;;3.50;;
11582;SDS011;34299;50.820;4.548;2023-07-16T08:18:07;6.63;;;3.50;;
11582;SDS011;34299;50.820;4.548;2023-07-16T08:20:35;6.67;;;4.00;;
11582;SDS011;34299;50.820;4.548;2023-07-16T08:23:04;5.50;;;2.43;;
11582;SDS011;34299;50.820;4.548;2023-07-16T08:25:31;7.90;;;4.07;;
11582;SDS011;34299;50.820;4.548;2023-07-16T08:27:58;10.80;;;4.90;;
11582;SDS011;34299;50.820;4.548;2023-07-16T08:30:25;5.37;;;3.60;;
11582;SDS011;34299;50.820;4.548;2023-07-16T08:32:53;6.00;;;3.80;;
11582;SDS011;34299;50.820;4.548;2023-07-16T08:35:20;9.33;;;4.60;;
11582;SDS011;34299;50.820;4.548;2023-07-16T08:37:47;7.57;;;3.63;;
11582;SDS011;34299;50.820;4.548;2023-07-16T08:40:16;6.07;;;3.37;;
11582;SDS011;34299;50.820;4.548;2023-07-16T08:42:44;5.37;;;2.50;;
11582;SDS011;34299;50.820;4.548;2023-07-16T08:45:12;7.47;;;4.30;;
11582;SDS011;34299;50.820;4.548;2023-07-16T08:47:40;5.07;;;2.73;;
11582;SDS011;34299;50.820;4.548;2023-07-16T08:50:08;8.57;;;3.63;;
11582;SDS011;34299;50.820;4.548;2023-07-16T08:52:36;3.97;;;2.37;;
11582;SDS011;34299;50.820;4.548;2023-07-16T08:55:04;7.67;;;3.30;;
11582;SDS011;34299;50.820;4.548;2023-07-16T08:57:34;7.27;;;3.60;;
11582;SDS011;34299;50.820;4.548;2023-07-16T09:00:01;5.97;;;3.13;;
11582;SDS011;34299;50.820;4.548;2023-07-16T09:02:28;4.97;;;3.20;;
11582;SDS011;34299;50.820;4.548;2023-07-16T09:04:56;6.67;;;3.67;;
11582;SDS011;34299;50.820;4.548;2023-07-16T09:07:23;7.77;;;3.17;;
11582;SDS011;34299;50.820;4.548;2023-07-16T09:09:57;5.53;;;3.07;;
11582;SDS011;34299;50.820;4.548;2023-07-16T09:12:25;3.10;;;2.33;;
11582;SDS011;34299;50.820;4.548;2023-07-16T09:14:53;4.33;;;3.07;;
11582;SDS011;34299;50.820;4.548;2023-07-16T09:17:21;5.33;;;2.60;;
11582;SDS011;34299;50.820;4.548;2023-07-16T09:19:49;6.33;;;3.07;;
11582;SDS011;34299;50.820;4.548;2023-07-16T09:22:17;6.17;;;3.23;;
11582;SDS011;34299;50.820;4.548;2023-07-16T09:24:45;8.00;;;3.60;;
11582;SDS011;34299;50.820;4.548;2023-07-16T09:27:12;6.73;;;3.10;;
11582;SDS011;34299;50.820;4.548;2023-07-16T09:29:40;9.20;;;3.43;;
11582;SDS011;34299;50.820;4.548;2023-07-16T09:32:08;6.90;;;3.50;;
11582;SDS011;34299;50.820;4.548;2023-07-16T09:34:36;6.97;;;3.60;;
11582;SDS011;34299;50.820;4.548;2023-07-16T09:37:04;7.50;;;3.90;;
11582;SDS011;34299;50.820;4.548;2023-07-16T09:39:31;6.47;;;3.47;;
11582;SDS011;34299;50.820;4.548;2023-07-16T09:41:59;5.47;;;3.13;;
11582;SDS011;34299;50.820;4.548;2023-07-16T09:44:27;5.93;;;3.17;;
11582;SDS011;34299;50.820;4.548;2023-07-16T09:46:54;5.50;;;3.97;;
11582;SDS011;34299;50.820;4.548;2023-07-16T09:49:23;6.17;;;3.70;;
11582;SDS011;34299;50.820;4.548;2023-07-16T09:51:50;6.67;;;4.03;;
11582;SDS011;34299;50.820;4.548;2023-07-16T09:54:19;7.97;;;3.30;;
11582;SDS011;34299;50.820;4.548;2023-07-16T09:56:50;8.57;;;3.70;;
11582;SDS011;34299;50.820;4.548;2023-07-16T09:59:19;7.60;;;3.73;;
11582;SDS011;34299;50.820;4.548;2023-07-16T10:01:46;5.87;;;3.10;;
11582;SDS011;34299;50.820;4.548;2023-07-16T10:04:15;9.03;;;4.03;;
11582;SDS011;34299;50.820;4.548;2023-07-16T10:06:50;5.93;;;3.77;;
11582;SDS011;34299;50.820;4.548;2023-07-16T10:09:34;4.67;;;3.33;;
11582;SDS011;34299;50.820;4.548;2023-07-16T10:12:11;5.83;;;3.67;;
11582;SDS011;34299;50.820;4.548;2023-07-16T10:14:39;8.73;;;4.60;;
11582;SDS011;34299;50.820;4.548;2023-07-16T10:17:07;4.17;;;2.13;;
11582;SDS011;34299;50.820;4.548;2023-07-16T10:19:45;5.97;;;3.10;;
11582;SDS011;34299;50.820;4.548;2023-07-16T10:22:14;5.33;;;2.73;;
11582;SDS011;34299;50.820;4.548;2023-07-16T10:24:41;8.17;;;3.27;;
11582;SDS011;34299;50.820;4.548;2023-07-16T10:27:08;3.73;;;2.60;;
11582;SDS011;34299;50.820;4.548;2023-07-16T10:29:36;5.83;;;3.10;;
11582;SDS011;34299;50.820;4.548;2023-07-16T10:32:03;7.17;;;3.07;;
11582;SDS011;34299;50.820;4.548;2023-07-16T10:34:34;6.30;;;3.10;;
11582;SDS011;34299;50.820;4.548;2023-07-16T10:37:01;5.07;;;2.93;;
11582;SDS011;34299;50.820;4.548;2023-07-16T10:39:31;6.70;;;3.30;;
11582;SDS011;34299;50.820;4.548;2023-07-16T10:41:58;9.90;;;3.43;;
11582;SDS011;34299;50.820;4.548;2023-07-16T10:44:27;7.13;;;3.20;;
11582;SDS011;34299;50.820;4.548;2023-07-16T10:46:54;4.97;;;2.60;;
11582;SDS011;34299;50.820;4.548;2023-07-16T10:49:26;2.53;;;2.23;;
11582;SDS011;34299;50.820;4.548;2023-07-16T10:51:54;5.33;;;3.23;;
11582;SDS011;34299;50.820;4.548;2023-07-16T10:54:21;4.47;;;2.97;;
11582;SDS011;34299;50.820;4.548;2023-07-16T10:56:50;6.97;;;2.97;;
11582;SDS011;34299;50.820;4.548;2023-07-16T10:59:18;4.73;;;3.30;;
11582;SDS011;34299;50.820;4.548;2023-07-16T11:01:45;6.17;;;2.93;;
11582;SDS011;34299;50.820;4.548;2023-07-16T11:04:12;6.73;;;3.13;;
11582;SDS011;34299;50.820;4.548;2023-07-16T11:06:40;4.73;;;2.73;;
11582;SDS011;34299;50.820;4.548;2023-07-16T11:09:07;6.57;;;2.83;;
11582;SDS011;34299;50.820;4.548;2023-07-16T11:11:34;7.87;;;3.30;;
11582;SDS011;34299;50.820;4.548;2023-07-16T11:14:04;6.10;;;3.63;;
11582;SDS011;34299;50.820;4.548;2023-07-16T11:16:34;6.87;;;3.60;;
11582;SDS011;34299;50.820;4.548;2023-07-16T11:19:03;6.40;;;3.40;;
11582;SDS011;34299;50.820;4.548;2023-07-16T11:21:32;5.47;;;3.30;;
11582;SDS011;34299;50.820;4.548;2023-07-16T11:24:07;6.03;;;2.73;;
11582;SDS011;34299;50.820;4.548;2023-07-16T11:26:34;4.43;;;2.67;;
11582;SDS011;34299;50.820;4.548;2023-07-16T11:29:13;5.63;;;2.77;;
11582;SDS011;34299;50.820;4.548;2023-07-16T11:31:40;6.17;;;3.30;;
11582;SDS011;34299;50.820;4.548;2023-07-16T11:34:07;6.67;;;2.63;;
11582;SDS011;34299;50.820;4.548;2023-07-16T11:36:34;7.10;;;3.37;;
11582;SDS011;34299;50.820;4.548;2023-07-16T11:39:02;8.77;;;3.17;;
11582;SDS011;34299;50.820;4.548;2023-07-16T11:41:30;7.53;;;3.07;;
11582;SDS011;34299;50.820;4.548;2023-07-16T11:43:59;4.93;;;3.20;;
11582;SDS011;34299;50.820;4.548;2023-07-16T11:46:30;5.90;;;3.13;;
11582;SDS011;34299;50.820;4.548;2023-07-16T11:48:58;6.50;;;2.90;;
11582;SDS011;34299;50.820;4.548;2023-07-16T11:51:25;9.40;;;3.10;;
11582;SDS011;34299;50.820;4.548;2023-07-16T11:53:53;6.20;;;2.77;;
11582;SDS011;34299;50.820;4.548;2023-07-16T11:56:21;5.27;;;2.63;;
11582;SDS011;34299;50.820;4.548;2023-07-16T11:58:48;5.43;;;3.13;;
11582;SDS011;34299;50.820;4.548;2023-07-16T12:01:15;4.00;;;2.63;;
11582;SDS011;34299;50.820;4.548;2023-07-16T12:03:44;6.17;;;2.90;;
11582;SDS011;34299;50.820;4.548;2023-07-16T12:06:11;5.73;;;2.80;;
11582;SDS011;34299;50.820;4.548;2023-07-16T12:08:38;4.40;;;2.67;;
11582;SDS011;34299;50.820;4.548;2023-07-16T12:11:06;4.57;;;2.30;;
11582;SDS011;34299;50.820;4.548;2023-07-16T12:13:33;7.37;;;2.83;;
11582;SDS011;34299;50.820;4.548;2023-07-16T12:16:00;6.07;;;2.73;;
11582;SDS011;34299;50.820;4.548;2023-07-16T12:18:27;4.17;;;2.87;;
11582;SDS011;34299;50.820;4.548;2023-07-16T12:20:57;7.43;;;3.33;;
11582;SDS011;34299;50.820;4.548;2023-07-16T12:23:24;5.93;;;3.03;;
11582;SDS011;34299;50.820;4.548;2023-07-16T12:25:51;7.63;;;3.00;;
11582;SDS011;34299;50.820;4.548;2023-07-16T12:28:18;4.53;;;2.80;;
11582;SDS011;34299;50.820;4.548;2023-07-16T12:30:46;7.03;;;3.20;;
11582;SDS011;34299;50.820;4.548;2023-07-16T12:33:13;6.60;;;2.60;;
11582;SDS011;34299;50.820;4.548;2023-07-16T12:35:40;5.87;;;2.90;;
11582;SDS011;34299;50.820;4.548;2023-07-16T12:38:09;7.07;;;3.13;;
11582;SDS011;34299;50.820;4.548;2023-07-16T12:40:36;5.53;;;3.07;;
11582;SDS011;34299;50.820;4.548;2023-07-16T12:43:05;6.37;;;3.10;;
11582;SDS011;34299;50.820;4.548;2023-07-16T12:45:33;3.50;;;2.60;;
11582;SDS011;34299;50.820;4.548;2023-07-16T12:48:00;6.37;;;3.13;;
11582;SDS011;34299;50.820;4.548;2023-07-16T12:50:27;5.43;;;2.97;;
11582;SDS011;34299;50.820;4.548;2023-07-16T12:52:54;5.30;;;2.50;;
11582;SDS011;34299;50.820;4.548;2023-07-16T12:55:23;3.87;;;2.77;;
11582;SDS011;34299;50.820;4.548;2023-07-16T12:57:50;5.37;;;2.97;;
11582;SDS011;34299;50.820;4.548;2023-07-16T13:00:17;4.97;;;2.83;;
11582;SDS011;34299;50.820;4.548;2023-07-16T13:02:45;4.13;;;2.90;;
11582;SDS011;34299;50.820;4.548;2023-07-16T13:05:12;3.60;;;2.93;;
11582;SDS011;34299;50.820;4.548;2023-07-16T13:07:39;5.37;;;2.93;;
11582;SDS011;34299;50.820;4.548;2023-07-16T13:10:07;4.67;;;2.60;;
11582;SDS011;34299;50.820;4.548;2023-07-16T13:12:36;6.63;;;2.80;;
11582;SDS011;34299;50.820;4.548;2023-07-16T13:15:03;6.80;;;2.60;;
11582;SDS011;34299;50.820;4.548;2023-07-16T13:17:31;7.13;;;3.20;;
11582;SDS011;34299;50.820;4.548;2023-07-16T13:19:58;4.77;;;2.53;;
11582;SDS011;34299;50.820;4.548;2023-07-16T13:22:25;7.60;;;2.60;;
11582;SDS011;34299;50.820;4.548;2023-07-16T13:24:52;7.03;;;2.93;;
11582;SDS011;34299;50.820;4.548;2023-07-16T13:27:20;4.73;;;2.70;;
11582;SDS011;34299;50.820;4.548;2023-07-16T13:29:48;5.17;;;2.60;;
11582;SDS011;34299;50.820;4.548;2023-07-16T13:32:16;5.53;;;2.43;;
11582;SDS011;34299;50.820;4.548;2023-07-16T13:34:43;4.50;;;2.30;;
11582;SDS011;34299;50.820;4.548;2023-07-16T13:37:10;4.10;;;2.47;;
11582;SDS011;34299;50.820;4.548;2023-07-16T13:39:37;5.53;;;2.60;;
11582;SDS011;34299;50.820;4.548;2023-07-16T13:42:05;2.27;;;2.00;;
11582;SDS011;34299;50.820;4.548;2023-07-16T13:44:32;5.03;;;2.20;;
11582;SDS011;34299;50.820;4.548;2023-07-16T13:47:01;9.43;;;2.47;;
11582;SDS011;34299;50.820;4.548;2023-07-16T13:49:28;4.10;;;2.50;;
11582;SDS011;34299;50.820;4.548;2023-07-16T13:51:55;4.97;;;2.10;;
11582;SDS011;34299;50.820;4.548;2023-07-16T13:54:23;4.10;;;2.40;;
11582;SDS011;34299;50.820;4.548;2023-07-16T13:56:50;4.03;;;2.50;;
11582;SDS011;34299;50.820;4.548;2023-07-16T13:59:17;5.30;;;2.07;;
11582;SDS011;34299;50.820;4.548;2023-07-16T14:01:44;3.77;;;2.27;;
11582;SDS011;34299;50.820;4.548;2023-07-16T14:04:13;4.43;;;2.43;;
11582;SDS011;34299;50.820;4.548;2023-07-16T14:06:40;8.20;;;2.00;;
11582;SDS011;34299;50.820;4.548;2023-07-16T14:09:08;4.23;;;2.10;;
11582;SDS011;34299;50.820;4.548;2023-07-16T14:11:35;2.77;;;1.80;;
11582;SDS011;34299;50.820;4.548;2023-07-16T14:14:02;3.30;;;2.00;;
11582;SDS011;34299;50.820;4.548;2023-07-16T14:16:29;3.87;;;1.93;;
11582;SDS011;34299;50.820;4.548;2023-07-16T14:18:57;4.20;;;2.10;;
11582;SDS011;34299;50.820;4.548;2023-07-16T14:21:26;5.43;;;1.93;;
11582;SDS011;34299;50.820;4.548;2023-07-16T14:23:53;4.40;;;2.13;;
11582;SDS011;34299;50.820;4.548;2023-07-16T14:26:21;4.57;;;2.00;;
11582;SDS011;34299;50.820;4.548;2023-07-16T14:28:48;5.10;;;2.30;;
11582;SDS011;34299;50.820;4.548;2023-07-16T14:31:15;3.17;;;2.07;;
11582;SDS011;34299;50.820;4.548;2023-07-16T14:33:42;3.40;;;2.20;;
11582;SDS011;34299;50.820;4.548;2023-07-16T14:36:09;3.60;;;2.07;;
11582;SDS011;34299;50.820;4.548;2023-07-16T14:38:38;3.13;;;1.83;;
11582;SDS011;34299;50.820;4.548;2023-07-16T14:41:05;5.20;;;2.43;;
11582;SDS011;34299;50.820;4.548;2023-07-16T14:43:33;3.77;;;2.30;;
11582;SDS011;34299;50.820;4.548;2023-07-16T14:46:00;4.03;;;2.00;;
11582;SDS011;34299;50.820;4.548;2023-07-16T14:48:28;5.23;;;2.10;;
11582;SDS011;34299;50.820;4.548;2023-07-16T14:50:55;2.53;;;1.90;;